sensor_id;sensor_type;location;lat;lon;timestamp;P1;P2;P0
34240;PMS7003;20503;50.200;19.508;2022-07-31T06:01:49;1;0;0
34240;PMS7003;20503;50.200;19.508;2022-07-31T06:06:59;0;0;0
34240;PMS7003;20503;50.200;19.508;2022-07-31T06:12:10;0;0;0
34240;PMS7003;20503;50.200;19.508;2022-07-31T06:17:21;0;0;0
34240;PMS7003;20503;50.200;19.508;2022-07-31T06:22:32;0;0;0
34240;PMS7003;20503;50.200;19.508;2022-07-31T06:27:42;3;0;0
34240;PMS7003;20503;50.200;19.508;2022-07-31T06:32:53;0;0;0
34240;PMS7003;20503;50.200;19.508;2022-07-31T06:38:04;0;0;0
34240;PMS7003;20503;50.200;19.508;2022-07-31T06:43:15;0;0;0
34240;PMS7003;20503;50.200;19.508;2022-07-31T06:48:25;1;1;1
34240;PMS7003;20503;50.200;19.508;2022-07-31T06:53:36;0;0;0
34240;PMS7003;20503;50.200;19.508;2022-07-31T06:58:47;1;0;0
34240;PMS7003;20503;50.200;19.508;2022-07-31T07:03:57;0;0;0
34240;PMS7003;20503;50.200;19.508;2022-07-31T07:09:08;2;0;0
34240;PMS7003;20503;50.200;19.508;2022-07-31T07:14:19;0;0;0
34240;PMS7003;20503;50.200;19.508;2022-07-31T07:19:30;0;0;0
34240;PMS7003;20503;50.200;19.508;2022-07-31T07:24:40;1;0;0
34240;PMS7003;20503;50.200;19.508;2022-07-31T07:29:51;0;0;0
34240;PMS7003;20503;50.200;19.508;2022-07-31T07:35:02;1;1;1
34240;PMS7003;20503;50.200;19.508;2022-07-31T07:40:13;0;0;0
34240;PMS7003;20503;50.200;19.508;2022-07-31T07:45:23;1;0;0
34240;PMS7003;20503;50.200;19.508;2022-07-31T07:50:34;1;0;0
34240;PMS7003;20503;50.200;19.508;2022-07-31T07:55:45;0;0;0
34240;PMS7003;20503;50.200;19.508;2022-07-31T08:00:56;0;0;0
34240;PMS7003;20503;50.200;19.508;2022-07-31T08:06:06;0;0;0
34240;PMS7003;20503;50.200;19.508;2022-07-31T08:11:17;1;0;0
34240;PMS7003;20503;50.200;19.508;2022-07-31T08:16:28;0;0;0
34240;PMS7003;20503;50.200;19.508;2022-07-31T08:21:38;2;0;0
34240;PMS7003;20503;50.200;19.508;2022-07-31T08:26:49;0;0;0
34240;PMS7003;20503;50.200;19.508;2022-07-31T08:32:03;5;0;0
34240;PMS7003;20503;50.200;19.508;2022-07-31T08:37:11;0;0;0
34240;PMS7003;20503;50.200;19.508;2022-07-31T08:42:22;0;0;0
34240;PMS7003;20503;50.200;19.508;2022-07-31T08:47:32;0;0;0
34240;PMS7003;20503;50.200;19.508;2022-07-31T08:52:43;1;1;1
34240;PMS7003;20503;50.200;19.508;2022-07-31T08:57:54;0;0;0
34240;PMS7003;20503;50.200;19.508;2022-07-31T09:03:04;0;0;0
34240;PMS7003;20503;50.200;19.508;2022-07-31T09:08:15;0;0;0
34240;PMS7003;20503;50.200;19.508;2022-07-31T09:13:26;1;1;1
34240;PMS7003;20503;50.200;19.508;2022-07-31T09:18:37;1;1;0
34240;PMS7003;20503;50.200;19.508;2022-07-31T09:23:47;0;0;0
34240;PMS7003;20503;50.200;19.508;2022-07-31T09:28:58;0;0;0
34240;PMS7003;20503;50.200;19.508;2022-07-31T09:34:09;0;0;0
34240;PMS7003;20503;50.200;19.508;2022-07-31T09:39:20;0;0;0
34240;PMS7003;20503;50.200;19.508;2022-07-31T09:44:34;0;0;0
34240;PMS7003;20503;50.200;19.508;2022-07-31T09:49:41;2;0;0
34240;PMS7003;20503;50.200;19.508;2022-07-31T10:00:04;0;0;0
34240;PMS7003;20503;50.200;19.508;2022-07-31T10:05:14;0;0;0
34240;PMS7003;20503;50.200;19.508;2022-07-31T10:10:24;1;1;1
34240;PMS7003;20503;50.200;19.508;2022-07-31T10:15:35;3;0;0
34240;PMS7003;20503;50.200;19.508;2022-07-31T10:20:48;1;1;0
34240;PMS7003;20503;50.200;19.508;2022-07-31T10:25:57;0;0;0
34240;PMS7003;20503;50.200;19.508;2022-07-31T10:31:07;0;0;0
34240;PMS7003;20503;50.200;19.508;2022-07-31T10:46:41;0;0;0
34240;PMS7003;20503;50.200;19.508;2022-07-31T10:51:51;0;0;0
34240;PMS7003;20503;50.200;19.508;2022-07-31T10:57:01;0;0;0
34240;PMS7003;20503;50.200;19.508;2022-07-31T11:02:11;0;0;0
34240;PMS7003;20503;50.200;19.508;2022-07-31T11:07:22;0;0;0
34240;PMS7003;20503;50.200;19.508;2022-07-31T11:12:33;0;0;0
34240;PMS7003;20503;50.200;19.508;2022-07-31T11:17:46;0;0;0
34240;PMS7003;20503;50.200;19.508;2022-07-31T11:23:00;0;0;0
34240;PMS7003;20503;50.200;19.508;2022-07-31T11:28:09;0;0;0
34240;PMS7003;20503;50.200;19.508;2022-07-31T11:38:32;0;0;0
34240;PMS7003;20503;50.200;19.508;2022-07-31T11:43:42;0;0;0
34240;PMS7003;20503;50.200;19.508;2022-07-31T11:48:48;0;0;0
34240;PMS7003;20503;50.200;19.508;2022-07-31T11:53:59;0;0;0
34240;PMS7003;20503;50.200;19.508;2022-07-31T11:59:09;0;0;0
34240;PMS7003;20503;50.200;19.508;2022-07-31T12:04:20;0;0;0
34240;PMS7003;20503;50.200;19.508;2022-07-31T12:09:31;0;0;0
34240;PMS7003;20503;50.200;19.508;2022-07-31T12:14:42;0;0;0
34240;PMS7003;20503;50.200;19.508;2022-07-31T12:19:52;0;0;0
34240;PMS7003;20503;50.200;19.508;2022-07-31T12:25:04;0;0;0
34240;PMS7003;20503;50.200;19.508;2022-07-31T12:30:14;0;0;0
34240;PMS7003;20503;50.200;19.508;2022-07-31T12:35:33;0;0;0
34240;PMS7003;20503;50.200;19.508;2022-07-31T12:40:35;0;0;0
34240;PMS7003;20503;50.200;19.508;2022-07-31T12:45:46;2;0;0
34240;PMS7003;20503;50.200;19.508;2022-07-31T12:50:58;1;1;0
34240;PMS7003;20503;50.200;19.508;2022-07-31T12:56:11;3;1;0
34240;PMS7003;20503;50.200;19.508;2022-07-31T13:01:18;2;2;1
34240;PMS7003;20503;50.200;19.508;2022-07-31T13:06:29;5;4;3
34240;PMS7003;20503;50.200;19.508;2022-07-31T13:11:40;5;5;3
34240;PMS7003;20503;50.200;19.508;2022-07-31T13:16:51;9;6;4
34240;PMS7003;20503;50.200;19.508;2022-07-31T13:22:01;9;9;6
34240;PMS7003;20503;50.200;19.508;2022-07-31T13:27:12;8;3;3
34240;PMS7003;20503;50.200;19.508;2022-07-31T13:32:23;8;5;4
34240;PMS7003;20503;50.200;19.508;2022-07-31T13:37:34;6;5;4
34240;PMS7003;20503;50.200;19.508;2022-07-31T13:42:44;3;3;2
34240;PMS7003;20503;50.200;19.508;2022-07-31T13:47:55;6;5;4
34240;PMS7003;20503;50.200;19.508;2022-07-31T13:53:06;9;2;2
34240;PMS7003;20503;50.200;19.508;2022-07-31T13:58:16;6;6;4
34240;PMS7003;20503;50.200;19.508;2022-07-31T14:03:27;4;4;3
34240;PMS7003;20503;50.200;19.508;2022-07-31T14:08:38;10;6;5
34240;PMS7003;20503;50.200;19.508;2022-07-31T14:13:49;4;4;4
34240;PMS7003;20503;50.200;19.508;2022-07-31T14:19:02;6;4;2
34240;PMS7003;20503;50.200;19.508;2022-07-31T14:24:10;7;5;4
34240;PMS7003;20503;50.200;19.508;2022-07-31T14:29:21;4;4;2
34240;PMS7003;20503;50.200;19.508;2022-07-31T14:34:32;4;4;3
34240;PMS7003;20503;50.200;19.508;2022-07-31T14:39:42;5;5;4
34240;PMS7003;20503;50.200;19.508;2022-07-31T14:44:53;1;1;1
34240;PMS7003;20503;50.200;19.508;2022-07-31T14:50:04;7;3;3
34240;PMS7003;20503;50.200;19.508;2022-07-31T14:55:15;1;1;1
34240;PMS7003;20503;50.200;19.508;2022-07-31T15:00:25;5;2;1
34240;PMS7003;20503;50.200;19.508;2022-07-31T15:05:37;3;3;3
34240;PMS7003;20503;50.200;19.508;2022-07-31T15:10:47;2;2;2
34240;PMS7003;20503;50.200;19.508;2022-07-31T15:15:58;4;4;3
34240;PMS7003;20503;50.200;19.508;2022-07-31T15:21:12;4;3;2
34240;PMS7003;20503;50.200;19.508;2022-07-31T15:26:19;1;1;1
34240;PMS7003;20503;50.200;19.508;2022-07-31T15:31:30;5;3;2
34240;PMS7003;20503;50.200;19.508;2022-07-31T15:36:41;5;4;3
34240;PMS7003;20503;50.200;19.508;2022-07-31T15:41:51;4;4;4
34240;PMS7003;20503;50.200;19.508;2022-07-31T15:47:02;8;8;6
34240;PMS7003;20503;50.200;19.508;2022-07-31T15:52:13;4;4;3
34240;PMS7003;20503;50.200;19.508;2022-07-31T15:57:23;3;3;2
34240;PMS7003;20503;50.200;19.508;2022-07-31T16:02:34;7;4;3
34240;PMS7003;20503;50.200;19.508;2022-07-31T16:07:45;3;3;3
34240;PMS7003;20503;50.200;19.508;2022-07-31T16:12:56;4;4;4
34240;PMS7003;20503;50.200;19.508;2022-07-31T16:18:06;6;5;3
34240;PMS7003;20503;50.200;19.508;2022-07-31T16:23:17;5;3;2
34240;PMS7003;20503;50.200;19.508;2022-07-31T16:28:28;10;6;3
34240;PMS7003;20503;50.200;19.508;2022-07-31T16:33:39;3;3;3
34240;PMS7003;20503;50.200;19.508;2022-07-31T16:38:50;2;2;2
34240;PMS7003;20503;50.200;19.508;2022-07-31T16:44:00;3;2;2
34240;PMS7003;20503;50.200;19.508;2022-07-31T16:49:11;3;3;3
34240;PMS7003;20503;50.200;19.508;2022-07-31T16:54:22;6;4;3
34240;PMS7003;20503;50.200;19.508;2022-07-31T16:59:32;3;3;2
34240;PMS7003;20503;50.200;19.508;2022-07-31T17:04:43;5;3;2
34240;PMS7003;20503;50.200;19.508;2022-07-31T17:09:54;3;2;2
34240;PMS7003;20503;50.200;19.508;2022-07-31T17:15:05;2;2;2
34240;PMS7003;20503;50.200;19.508;2022-07-31T17:20:16;7;3;2
34240;PMS7003;20503;50.200;19.508;2022-07-31T17:25:26;5;4;3
34240;PMS7003;20503;50.200;19.508;2022-07-31T17:30:37;1;1;1
34240;PMS7003;20503;50.200;19.508;2022-07-31T17:35:47;1;1;1
34240;PMS7003;20503;50.200;19.508;2022-07-31T17:40:58;1;1;1
34240;PMS7003;20503;50.200;19.508;2022-07-31T17:46:09;2;2;1
34240;PMS7003;20503;50.200;19.508;2022-07-31T17:51:20;0;0;0
34240;PMS7003;20503;50.200;19.508;2022-07-31T17:56:30;4;2;1
34240;PMS7003;20503;50.200;19.508;2022-07-31T18:01:41;2;1;1
34240;PMS7003;20503;50.200;19.508;2022-07-31T18:06:52;5;2;2
34240;PMS7003;20503;50.200;19.508;2022-07-31T18:12:03;4;3;2
34240;PMS7003;20503;50.200;19.508;2022-07-31T18:17:13;2;2;2
34240;PMS7003;20503;50.200;19.508;2022-07-31T18:22:24;3;2;2
